createdAt,value
2023-09-09T00:05:18.327Z,6.14
2023-09-09T00:15:17.292Z,6.89
2023-09-09T00:25:16.266Z,6.65
2023-09-09T00:35:15.351Z,10.70
2023-09-09T00:45:14.372Z,7.11
2023-09-09T00:55:13.316Z,6.43
2023-09-09T01:05:12.454Z,7.44
2023-09-09T01:15:11.341Z,6.28
2023-09-09T01:25:10.837Z,5.73
2023-09-09T01:35:09.522Z,9.25
2023-09-09T01:45:08.554Z,7.06
2023-09-09T01:55:07.665Z,7.51
2023-09-09T02:05:07.645Z,5.39
2023-09-09T02:15:06.558Z,5.64
2023-09-09T02:25:05.440Z,8.23
2023-09-09T02:35:04.480Z,6.60
2023-09-09T02:45:03.935Z,5.65
2023-09-09T02:55:02.692Z,5.60
2023-09-09T03:05:01.817Z,5.71
2023-09-09T03:15:00.718Z,6.34
2023-09-09T03:24:59.496Z,8.58
2023-09-09T03:34:58.531Z,6.28
2023-09-09T03:44:59.042Z,6.56
2023-09-09T03:54:58.551Z,4.21
2023-09-09T04:04:57.534Z,5.98
2023-09-09T04:14:56.561Z,5.80
2023-09-09T04:24:55.555Z,4.14
2023-09-09T04:34:54.690Z,25.43
2023-09-09T04:44:53.746Z,5.92
2023-09-09T04:54:52.686Z,4.27
2023-09-09T05:04:51.846Z,4.88
2023-09-09T05:14:50.570Z,7.98
2023-09-09T05:24:49.491Z,9.14
2023-09-09T05:34:48.874Z,10.90
2023-09-09T05:44:47.887Z,9.22
2023-09-09T05:54:46.699Z,7.09
2023-09-09T06:04:45.662Z,7.73
2023-09-09T06:14:44.909Z,7.73
2023-09-09T06:24:44.335Z,7.03
2023-09-09T06:34:43.615Z,7.29
2023-09-09T06:44:42.595Z,7.75
2023-09-09T06:54:41.549Z,28.78
2023-09-09T07:04:40.602Z,5.42
2023-09-09T07:14:41.791Z,10.43
2023-09-09T07:24:40.569Z,9.21
2023-09-09T07:34:39.659Z,6.12
2023-09-09T07:44:38.579Z,6.41
2023-09-09T07:54:37.580Z,6.72
2023-09-09T08:04:36.684Z,7.83
2023-09-09T08:14:35.593Z,8.24
2023-09-09T08:24:34.606Z,6.59
2023-09-09T08:34:33.705Z,7.85
2023-09-09T08:44:32.611Z,7.61
2023-09-09T08:54:31.629Z,11.00
2023-09-09T09:04:30.673Z,11.97
2023-09-09T09:14:30.378Z,12.20
2023-09-09T09:24:30.124Z,17.89
2023-09-09T09:34:28.634Z,22.37
2023-09-09T09:44:27.707Z,29.86
2023-09-09T09:54:26.671Z,51.63
2023-09-09T10:04:25.759Z,18.58
2023-09-09T10:14:24.709Z,16.63
2023-09-09T10:24:23.727Z,17.83
2023-09-09T10:34:22.688Z,16.07
2023-09-09T10:44:21.790Z,14.25
2023-09-09T10:54:20.720Z,27.16
2023-09-09T11:04:20.153Z,14.93
2023-09-09T11:14:18.808Z,15.74
2023-09-09T11:24:17.935Z,11.03
2023-09-09T11:34:16.850Z,7.19
2023-09-09T11:44:15.768Z,6.61
2023-09-09T11:54:14.757Z,6.56
2023-09-09T12:04:14.008Z,6.52
2023-09-09T12:14:12.881Z,24.70
2023-09-09T12:24:11.880Z,9.02
2023-09-09T12:34:10.780Z,11.04
2023-09-09T12:44:10.275Z,14.88
2023-09-09T12:54:08.885Z,7.00
2023-09-09T13:04:07.795Z,7.57
2023-09-09T13:14:13.201Z,13.84
2023-09-09T13:24:07.825Z,22.28
2023-09-09T13:34:06.843Z,14.04
2023-09-09T13:44:05.876Z,21.47
2023-09-09T13:54:04.937Z,45.24
2023-09-09T14:04:03.995Z,50.79
2023-09-09T14:14:02.863Z,48.59
2023-09-09T14:24:01.956Z,46.32
2023-09-09T14:34:00.862Z,45.73
2023-09-09T14:43:59.943Z,34.39
2023-09-09T14:53:58.913Z,30.60
2023-09-09T15:03:58.147Z,32.26
2023-09-09T15:13:56.958Z,27.73
2023-09-09T15:23:55.911Z,32.20
2023-09-09T15:33:55.169Z,25.16
2023-09-09T15:43:54.668Z,26.92
2023-09-09T15:53:53.948Z,24.60
2023-09-09T16:03:53.050Z,28.58
2023-09-09T16:13:52.221Z,25.52
2023-09-09T16:23:50.956Z,27.53
2023-09-09T16:33:50.036Z,21.73
2023-09-09T16:43:49.098Z,27.18
2023-09-09T16:53:47.982Z,31.19
2023-09-09T17:03:47.080Z,27.73
2023-09-09T17:13:46.041Z,32.95
2023-09-09T17:23:45.028Z,29.87
2023-09-09T17:33:44.005Z,26.35
2023-09-09T17:43:43.111Z,17.35
2023-09-09T17:53:42.059Z,18.88
2023-09-09T18:03:41.092Z,7.41
2023-09-09T18:13:40.060Z,31.72
2023-09-09T18:23:39.415Z,11.63
2023-09-09T18:33:39.356Z,15.52
2023-09-09T18:43:38.154Z,8.91
2023-09-09T18:53:37.092Z,11.30
2023-09-09T19:03:36.395Z,9.73
2023-09-09T19:13:35.160Z,13.93
2023-09-09T19:23:34.128Z,11.92
2023-09-09T19:33:33.151Z,9.25
2023-09-09T19:43:32.162Z,9.40
2023-09-09T19:53:31.125Z,8.68
2023-09-09T20:03:30.234Z,12.32
2023-09-09T20:13:29.186Z,13.36
2023-09-09T20:23:28.738Z,12.95
2023-09-09T20:33:27.159Z,24.70
2023-09-09T20:43:26.463Z,24.60
2023-09-09T20:53:25.222Z,10.75
2023-09-09T21:03:24.244Z,11.85
2023-09-09T21:13:23.186Z,13.13
2023-09-09T21:23:22.185Z,17.22
2023-09-09T21:33:21.183Z,19.67
2023-09-09T21:43:20.312Z,11.14
2023-09-09T21:53:19.487Z,12.01
2023-09-09T22:03:18.349Z,13.85
2023-09-09T22:13:17.268Z,10.70
2023-09-09T22:23:16.211Z,8.24
2023-09-09T22:33:15.232Z,8.80
2023-09-09T22:43:14.239Z,9.81
2023-09-09T22:53:13.335Z,10.35
2023-09-09T23:03:12.427Z,10.22
2023-09-09T23:13:11.289Z,10.34
2023-09-09T23:23:10.278Z,14.85
2023-09-09T23:33:09.291Z,13.73
2023-09-09T23:43:08.280Z,10.37
2023-09-09T23:53:07.300Z,12.06
